Flight Track Log - Related Links

Times and Time Zones

All times are in EDT time to prevent confusion due to time zone crossing. See the EJA951 flight status page for this flight to view local times or setup timezone preferences in your user account.

Time Position Orientation Groundspeed Altitude Reporting Facility
EDT Latitude Longitude Course Direction KTS MPH feet Rate Location/Type
Sun 10:36:47 PM 38.4500 -121.2000 159° South 289 333 7,100  Level Northern Cal TRACON
Sun 10:37:14 PM 38.4311 -121.1672 126° Southeast 306 352 8,300 2,182 Climbing Oakland Center
Sun 10:38:15 PM 38.3528 -121.1444 167° South 317 365 10,300 1,677 Climbing Oakland Center
Sun 10:38:47 PM 38.2833 -121.1333 173° South 369 425 10,900 689 Climbing Northern Cal TRACON
Sun 10:39:16 PM 38.2289 -121.1119 163° South 382 440 11,000  Climbing Oakland Center
Sun 10:40:17 PM 38.1133 -121.0814 168° South 416 479 10,900 -49 Descending Oakland Center
Sun 10:41:00 PM 38.2033 -121.3800 152° Southeast  Level FlightAware Approximate
Sun 10:41:18 PM 37.9944 -121.0889 183° South 429 494 10,900  Level Oakland Center
Sun 10:41:47 PM 37.9333 -121.1333 210° Southwest 425 489 10,900  Level Northern Cal TRACON
Sun 10:42:41 PM 37.8500 -121.2000 212° Southwest 495 570 10,900  Level Northern Cal TRACON
Sun 10:43:47 PM 37.7500 -121.2667 208° Southwest 404 465 10,900 48 Level Northern Cal TRACON
Sun 10:44:47 PM 37.6500 -121.3500 213° Southwest 418 481 11,000 -200 Climbing Northern Cal TRACON
Sun 10:45:47 PM 37.5500 -121.4167 208° Southwest 359 413 10,500 -850 Descending Northern Cal TRACON
Sun 10:46:47 PM 37.4833 -121.4667 211° Southwest 317 365 9,300 -1,368 Descending Northern Cal TRACON
Sun 10:47:41 PM 37.4000 -121.5167 205° Southwest 314 361 7,900 -1,320 Descending Northern Cal TRACON
Sun 10:48:27 PM 37.3575 -121.5631 221° Southwest 308 354 7,100 -1,065 Descending Oakland Center
Sun 10:49:28 PM 37.3086 -121.6242 225° Southwest 277 319 6,000 -1,122 Descending Oakland Center
Sun 10:50:30 PM 37.2856 -121.7153 252° West 266 306 4,800 -1,220 Descending Oakland Center
Sun 10:51:31 PM 37.2719 -121.8000 259° West 256 295 3,500 -1,279 Descending Oakland Center
Sun 10:52:32 PM 37.2983 -121.8650 297° West 231 266 2,200 -1,279 Descending Oakland Center
Sun 10:53:33 PM 37.3333 -121.8997 322° Northwest 186 214 900 -1,279 Descending Oakland Center
Sun 10:56:00 PM 37.3500 -121.9167 North  Level FlightAware Approximate

Login

Don't have an account? Register now (free) for customized features, flight alerts, and more!